Aeroporto :
LOGIN :

Iscrizione | Disclaimer

   EN    FR    IT 

 










Sommario :    VFR   VFR Marginale   IFR   IFR Intensivo   IFR Molto Intensivo
Visibilità : 
Base nubi : 
>= 8 km
>= 3000ft
5 / 8 km
1000 / 3000 ft
1500m / 5 km
500 / 1000 ft
800 / 1500m
200 / 500 ft
< 800m
< 200 ft
Simboli :   Temporali  Nebbia  Neve Forte  Precipitazioni Forti  Vento > 20 kt
SIGMETs :   Varie  Temporali  Ghiacco  Turbolenza  Onda orograficha  Ceneri Vulcaniche






- Altitudine del aeroporto : 844 ft
- Codice IATA : OSR


LKMT - Ostrava-Mosnov

ULTIMO METAR :
  • 131030Z 22009KT 9999 FEW030 25/18 Q1012 NOSIG

METARs OBSOLETI :
  • 131000Z 22011KT 9999 SCT024 25/18 Q1012 NOSIG
  • 130930Z 23014KT 9999 SCT024 24/19 Q1012 NOSIG
  • 130900Z 22012KT 9999 SCT024 24/18 Q1012 NOSIG
  • 130830Z 22012KT 9999 FEW021 24/19 Q1012 NOSIG
  • 130800Z 22012KT 9999 FEW017 23/19 Q1012 NOSIG
  • 130730Z 21012KT 9999 SCT013 23/20 Q1012 NOSIG
  • 130700Z 20010KT 9999 FEW011 22/19 Q1011 NOSIG
  • 130630Z 22008KT 9999 SCT013 BKN020 21/19 Q1011 NOSIG
  • 130600Z 24007KT 9999 OVC010 20/19 Q1011 NOSIG

TAF TAF LKMT
Valido dal 13 a 06 ore il 14 a 06 ore UTC


130500Z 1306/1406 23008KT 9999 SCT030
TEMPO 1306/1309 BKN013
PROB30
TEMPO 1306/1309 BKN008
BECMG 1312/1314 04008KT
PROB30
TEMPO 1319/1405 25012G25KT 2000 TSRA BKN007 SCT030CB



MetMap, La meteo Aeronautica in un colpo d'occhio ! - Copyright ORBIFLY Dicembre 2007 - Disclaimer

ORBIFLY MET'MAP TEAM :

Programmazione e sviluppo : Alexandra Zaïnal
Concezione : Baudouin d'Aumeries
Supporto tecnico e logistico : Manuel Goepfert
Aiuto : Marc-Olivier Méhu
Aiuto per la traduzione : Arnaldo La Scala




FONTI E CREDITI :

   NOAA